createdAt,value
2022-12-25T00:00:42.658Z,43.13
2022-12-25T00:03:09.793Z,39.80
2022-12-25T00:05:39.898Z,40.72
2022-12-25T00:08:07.209Z,43.90
2022-12-25T00:10:37.476Z,40.92
2022-12-25T00:13:06.845Z,40.35
2022-12-25T00:15:33.853Z,44.00
2022-12-25T00:18:00.814Z,44.90
2022-12-25T00:20:27.873Z,46.25
2022-12-25T00:22:55.109Z,51.72
2022-12-25T00:25:22.152Z,51.25
2022-12-25T00:27:49.179Z,41.70
2022-12-25T00:30:16.134Z,45.25
2022-12-25T00:32:43.162Z,44.80
2022-12-25T00:35:10.223Z,40.15
2022-12-25T00:37:37.168Z,40.85
2022-12-25T00:40:05.478Z,56.22
2022-12-25T00:42:32.440Z,45.85
2022-12-25T00:45:01.590Z,42.00
2022-12-25T00:47:29.770Z,43.15
2022-12-25T00:49:56.717Z,39.78
2022-12-25T00:52:23.689Z,40.72
2022-12-25T00:54:50.650Z,40.10
2022-12-25T00:57:19.721Z,34.70
2022-12-25T00:59:46.691Z,42.90
2022-12-25T01:02:26.130Z,38.30
2022-12-25T01:04:57.135Z,34.85
2022-12-25T01:07:25.917Z,46.22
2022-12-25T01:10:11.768Z,36.33
2022-12-25T01:12:41.001Z,34.25
2022-12-25T01:15:09.612Z,34.75
2022-12-25T01:17:36.595Z,34.00
2022-12-25T01:20:04.234Z,31.67
2022-12-25T01:22:31.268Z,39.38
2022-12-25T01:24:58.349Z,35.42
2022-12-25T01:27:25.459Z,36.90
2022-12-25T01:29:52.455Z,31.75
2022-12-25T01:32:19.875Z,36.45
2022-12-25T01:34:51.982Z,31.17
2022-12-25T01:37:23.558Z,31.45
2022-12-25T01:39:50.623Z,38.20
2022-12-25T01:42:19.669Z,36.95
2022-12-25T01:44:46.611Z,36.25
2022-12-25T01:47:15.293Z,33.40
2022-12-25T01:49:46.606Z,34.85
2022-12-25T01:52:24.199Z,32.33
2022-12-25T01:55:04.062Z,35.38
2022-12-25T01:57:34.705Z,33.97
2022-12-25T02:00:02.639Z,34.40
2022-12-25T02:02:32.527Z,36.25
2022-12-25T02:05:12.507Z,42.45
2022-12-25T02:07:43.389Z,32.28
2022-12-25T02:10:11.966Z,33.30
2022-12-25T02:12:40.964Z,40.40
2022-12-25T02:15:53.049Z,44.05
2022-12-25T02:18:43.803Z,31.30
2022-12-25T02:21:31.042Z,29.98
2022-12-25T02:24:24.959Z,29.27
2022-12-25T02:27:15.191Z,29.15
2022-12-25T02:30:08.387Z,27.95
2022-12-25T02:32:42.929Z,25.85
2022-12-25T02:35:26.927Z,30.17
2022-12-25T02:40:59.216Z,29.73
2022-12-25T02:43:57.093Z,28.40
2022-12-25T02:46:44.699Z,31.98
2022-12-25T02:49:42.048Z,23.95
2022-12-25T02:52:37.821Z,24.17
2022-12-25T02:55:30.610Z,25.20
2022-12-25T02:58:21.396Z,26.48
2022-12-25T03:01:27.548Z,27.38
2022-12-25T03:04:17.755Z,25.48
2022-12-25T03:07:00.174Z,26.10
2022-12-25T03:09:52.227Z,26.60
2022-12-25T03:12:37.457Z,25.13
2022-12-25T03:15:27.008Z,25.40
2022-12-25T03:17:56.973Z,22.42
2022-12-25T03:20:42.536Z,22.73
2022-12-25T03:23:30.977Z,23.83
2022-12-25T03:26:16.256Z,24.25
2022-12-25T03:28:43.253Z,22.95
2022-12-25T03:31:19.149Z,23.70
2022-12-25T03:34:30.872Z,24.60
2022-12-25T03:37:51.947Z,23.45
2022-12-25T03:40:56.190Z,23.00
2022-12-25T03:44:07.875Z,23.65
2022-12-25T03:46:59.030Z,25.02
2022-12-25T03:49:52.038Z,24.08
2022-12-25T03:52:39.158Z,26.65
2022-12-25T03:55:28.576Z,25.25
2022-12-25T03:58:14.014Z,23.30
2022-12-25T04:00:59.439Z,23.63
2022-12-25T04:03:44.951Z,19.90
2022-12-25T04:06:30.427Z,22.02
2022-12-25T04:09:15.749Z,21.20
2022-12-25T04:12:03.027Z,23.30
2022-12-25T04:14:49.040Z,20.95
2022-12-25T04:17:34.417Z,21.63
2022-12-25T04:20:19.980Z,26.77
2022-12-25T04:23:05.277Z,23.88
2022-12-25T04:25:50.676Z,21.85
2022-12-25T04:28:36.332Z,22.98
2022-12-25T04:31:21.829Z,22.20
2022-12-25T04:34:07.639Z,27.73
2022-12-25T04:36:34.651Z,21.30
2022-12-25T04:39:01.605Z,22.77
2022-12-25T04:41:28.642Z,24.08
2022-12-25T04:43:55.655Z,23.05
2022-12-25T04:46:22.668Z,24.77
2022-12-25T04:48:49.680Z,23.63
2022-12-25T04:51:20.109Z,26.58
2022-12-25T04:53:48.388Z,21.83
2022-12-25T04:56:16.807Z,20.13
2022-12-25T04:58:44.946Z,21.95
2022-12-25T05:01:13.293Z,20.42
2022-12-25T05:03:40.537Z,19.27
2022-12-25T05:06:08.004Z,20.42
2022-12-25T05:08:36.440Z,16.15
2022-12-25T05:11:09.290Z,17.92
2022-12-25T05:13:37.010Z,16.83
2022-12-25T05:16:16.993Z,18.65
2022-12-25T05:18:44.663Z,16.92
2022-12-25T05:21:12.666Z,15.80
2022-12-25T05:23:48.518Z,16.25
2022-12-25T05:26:21.723Z,15.93
2022-12-25T05:28:49.208Z,14.50
2022-12-25T05:31:16.938Z,16.13
2022-12-25T05:33:43.997Z,13.35
2022-12-25T05:36:12.604Z,12.80
2022-12-25T05:38:39.899Z,14.20
2022-12-25T05:41:07.367Z,13.57
2022-12-25T05:43:34.477Z,15.20
2022-12-25T05:46:09.542Z,14.65
2022-12-25T05:48:37.915Z,13.15
2022-12-25T05:51:12.917Z,11.38
2022-12-25T05:53:40.721Z,15.38
2022-12-25T05:56:09.635Z,10.40
2022-12-25T05:58:38.531Z,12.57
2022-12-25T06:01:12.282Z,12.63
2022-12-25T06:06:07.363Z,12.27
2022-12-25T06:08:35.080Z,12.38
2022-12-25T06:11:07.157Z,11.88
2022-12-25T06:13:35.378Z,14.30
2022-12-25T06:16:10.261Z,14.02
2022-12-25T06:18:39.153Z,12.52
2022-12-25T06:21:08.358Z,11.48
2022-12-25T06:23:36.388Z,13.20
2022-12-25T06:26:09.542Z,10.80
2022-12-25T06:28:36.979Z,11.75
2022-12-25T06:31:13.181Z,12.68
2022-12-25T06:33:40.815Z,13.23
2022-12-25T06:36:16.976Z,10.48
2022-12-25T06:38:44.414Z,13.50
2022-12-25T06:41:22.439Z,14.68
2022-12-25T06:43:51.357Z,16.45
2022-12-25T06:46:19.633Z,14.80
2022-12-25T06:48:49.974Z,12.30
2022-12-25T06:51:19.641Z,14.40
2022-12-25T06:53:47.812Z,19.90
2022-12-25T06:56:17.214Z,20.50
2022-12-25T06:58:46.572Z,17.92
2022-12-25T07:01:25.194Z,12.25
2022-12-25T07:03:56.496Z,12.13
2022-12-25T07:06:24.113Z,12.63
2022-12-25T07:08:51.275Z,12.70
2022-12-25T07:11:18.366Z,10.20
2022-12-25T07:13:45.739Z,10.38
2022-12-25T07:16:13.079Z,11.68
2022-12-25T07:18:41.175Z,14.20
2022-12-25T07:21:14.460Z,14.20
2022-12-25T07:23:42.267Z,12.75
2022-12-25T07:26:11.593Z,12.50
2022-12-25T07:28:38.875Z,16.48
2022-12-25T07:31:08.473Z,11.70
2022-12-25T07:33:36.118Z,12.90
2022-12-25T07:36:03.785Z,10.50
2022-12-25T07:38:30.754Z,11.75
2022-12-25T07:40:57.854Z,18.92
2022-12-25T07:43:25.237Z,16.80
2022-12-25T07:45:59.639Z,19.35
2022-12-25T07:48:27.658Z,15.98
2022-12-25T07:51:03.525Z,17.65
2022-12-25T07:53:31.371Z,14.05
2022-12-25T07:56:00.838Z,14.85
2022-12-25T07:58:28.881Z,15.88
2022-12-25T08:01:01.501Z,17.58
2022-12-25T08:03:29.411Z,15.27
2022-12-25T08:06:03.541Z,19.15
2022-12-25T08:08:30.999Z,18.65
2022-12-25T08:10:58.161Z,15.07
2022-12-25T08:13:25.158Z,17.23
2022-12-25T08:16:01.503Z,17.40
2022-12-25T08:18:32.267Z,25.23
2022-12-25T08:21:25.228Z,22.30
2022-12-25T08:23:52.337Z,21.60
2022-12-25T08:26:21.797Z,19.35
2022-12-25T08:28:48.979Z,22.30
2022-12-25T08:31:22.774Z,32.65
2022-12-25T08:33:52.503Z,38.33
2022-12-25T08:36:20.146Z,49.50
2022-12-25T08:38:47.772Z,39.28
2022-12-25T08:41:16.184Z,32.28
2022-12-25T08:43:43.334Z,21.25
2022-12-25T08:46:11.074Z,16.27
2022-12-25T08:48:38.753Z,14.55
2022-12-25T08:51:11.332Z,18.08
2022-12-25T08:53:39.190Z,13.97
2022-12-25T08:56:06.519Z,14.35
2022-12-25T08:58:40.098Z,14.43
2022-12-25T09:01:07.883Z,16.25
2022-12-25T09:03:35.595Z,19.50
2022-12-25T09:06:04.768Z,16.02
2022-12-25T09:08:32.108Z,14.55
2022-12-25T09:11:09.144Z,13.93
2022-12-25T09:13:37.485Z,14.82
2022-12-25T09:16:12.692Z,12.93
2022-12-25T09:18:50.629Z,12.90
2022-12-25T09:21:32.653Z,18.48
2022-12-25T09:24:03.248Z,15.07
2022-12-25T09:26:46.198Z,11.52
2022-12-25T09:29:21.685Z,16.23
2022-12-25T09:31:57.228Z,16.15
2022-12-25T09:34:31.290Z,22.02
2022-12-25T09:37:18.038Z,21.05
2022-12-25T09:40:19.668Z,22.42
2022-12-25T09:43:04.310Z,18.77
2022-12-25T09:45:45.392Z,20.17
2022-12-25T09:48:16.993Z,20.70
2022-12-25T09:51:02.867Z,24.90
2022-12-25T09:53:39.232Z,21.90
2022-12-25T09:56:25.535Z,25.80
2022-12-25T09:58:53.703Z,19.95
2022-12-25T10:01:44.735Z,22.23
2022-12-25T10:04:37.493Z,22.00
2022-12-25T10:07:25.581Z,21.60
2022-12-25T10:10:17.673Z,21.00
2022-12-25T10:13:02.798Z,21.48
2022-12-25T10:15:29.741Z,22.77
2022-12-25T10:18:08.691Z,22.98
2022-12-25T10:20:52.462Z,22.85
2022-12-25T10:23:38.998Z,22.23
2022-12-25T10:26:18.715Z,22.42
2022-12-25T10:29:16.483Z,23.13
2022-12-25T10:31:46.759Z,22.02
2022-12-25T10:34:15.101Z,25.10
2022-12-25T10:36:45.320Z,30.02
2022-12-25T10:39:20.754Z,22.13
2022-12-25T10:42:04.216Z,26.20
2022-12-25T10:44:32.318Z,21.27
2022-12-25T10:47:01.514Z,19.27
2022-12-25T10:49:39.799Z,17.38
2022-12-25T10:52:21.495Z,15.65
2022-12-25T10:54:48.625Z,19.02
2022-12-25T10:57:18.341Z,19.45
2022-12-25T10:59:49.677Z,22.27
2022-12-25T11:02:22.390Z,19.20
2022-12-25T11:04:50.628Z,20.23
2022-12-25T11:07:23.814Z,22.48
2022-12-25T11:10:02.691Z,24.27
2022-12-25T11:12:37.111Z,20.75
2022-12-25T11:15:43.912Z,23.17
2022-12-25T11:18:24.121Z,22.48
2022-12-25T11:20:58.539Z,25.60
2022-12-25T11:23:29.024Z,25.00
2022-12-25T11:26:02.409Z,24.33
2022-12-25T11:28:31.371Z,25.83
2022-12-25T11:31:23.551Z,25.90
2022-12-25T11:34:12.064Z,26.15
2022-12-25T11:36:48.008Z,27.70
2022-12-25T11:39:36.227Z,17.90
2022-12-25T11:42:32.929Z,23.08
2022-12-25T11:45:03.068Z,21.02
2022-12-25T11:47:51.487Z,21.30
2022-12-25T11:50:55.540Z,22.42
2022-12-25T11:53:30.919Z,21.92
2022-12-25T11:56:03.031Z,23.83
2022-12-25T11:58:49.600Z,23.80
2022-12-25T12:01:31.034Z,23.52
2022-12-25T12:04:00.980Z,21.85
2022-12-25T12:06:46.324Z,22.90
2022-12-25T12:09:44.269Z,25.88
2022-12-25T12:12:23.849Z,25.90
2022-12-25T12:14:53.504Z,22.40
2022-12-25T12:17:20.978Z,23.15
2022-12-25T12:19:48.262Z,25.63
2022-12-25T12:22:25.003Z,31.60
2022-12-25T12:25:03.792Z,24.67
2022-12-25T12:27:36.663Z,24.83
2022-12-25T12:30:05.103Z,24.13
2022-12-25T12:32:35.245Z,27.70
2022-12-25T12:35:09.694Z,24.98
2022-12-25T12:37:38.754Z,25.52
2022-12-25T12:40:09.321Z,23.50
2022-12-25T12:42:46.276Z,25.40
2022-12-25T12:45:30.572Z,27.67
2022-12-25T12:47:58.395Z,25.73
2022-12-25T12:50:32.897Z,25.35
2022-12-25T12:53:05.786Z,26.33
2022-12-25T12:55:35.206Z,25.50
2022-12-25T12:58:04.169Z,30.88
2022-12-25T13:00:48.260Z,29.05
2022-12-25T13:03:35.653Z,30.15
2022-12-25T13:06:26.091Z,27.88
2022-12-25T13:09:31.836Z,30.95
2022-12-25T13:11:59.607Z,28.73
2022-12-25T13:14:26.772Z,31.38
2022-12-25T13:16:54.821Z,30.63
2022-12-25T13:19:24.944Z,34.22
2022-12-25T13:22:01.047Z,29.95
2022-12-25T13:24:37.633Z,28.02
2022-12-25T13:27:23.096Z,38.17
2022-12-25T13:29:50.185Z,32.30
2022-12-25T13:32:31.860Z,22.20
2022-12-25T13:35:00.414Z,27.05
2022-12-25T13:37:30.178Z,28.95
2022-12-25T13:40:01.239Z,30.42
2022-12-25T13:42:32.237Z,29.38
2022-12-25T13:45:02.275Z,28.63
2022-12-25T13:47:32.130Z,31.25
2022-12-25T13:50:13.393Z,26.38
2022-12-25T13:52:40.621Z,30.02
2022-12-25T13:55:18.911Z,29.60
2022-12-25T13:57:52.981Z,34.25
2022-12-25T14:00:25.764Z,34.45
2022-12-25T14:02:54.132Z,36.60
2022-12-25T14:05:42.348Z,34.28
2022-12-25T14:08:20.859Z,35.80
2022-12-25T14:10:51.189Z,32.85
2022-12-25T14:13:22.371Z,36.78
2022-12-25T14:15:53.372Z,34.58
2022-12-25T14:18:22.637Z,34.13
2022-12-25T14:21:02.511Z,32.78
2022-12-25T14:23:44.010Z,32.67
2022-12-25T14:26:23.517Z,38.58
2022-12-25T14:28:54.540Z,38.88
2022-12-25T14:31:23.630Z,36.67
2022-12-25T14:33:52.623Z,42.08
2022-12-25T14:36:19.988Z,38.90
2022-12-25T14:38:58.038Z,39.10
2022-12-25T14:41:37.674Z,42.28
2022-12-25T14:44:24.577Z,42.90
2022-12-25T14:47:02.525Z,43.90
2022-12-25T14:49:32.621Z,48.47
2022-12-25T14:51:59.943Z,42.65
2022-12-25T14:54:27.559Z,36.97
2022-12-25T14:56:56.317Z,38.17
2022-12-25T14:59:27.172Z,40.03
2022-12-25T15:02:03.563Z,38.90
2022-12-25T15:04:30.942Z,32.15
2022-12-25T15:07:00.788Z,35.72
2022-12-25T15:09:30.026Z,38.70
2022-12-25T15:11:57.295Z,33.60
2022-12-25T15:14:25.309Z,31.17
2022-12-25T15:16:58.789Z,33.40
2022-12-25T15:19:34.814Z,30.85
2022-12-25T15:22:04.470Z,35.67
2022-12-25T15:24:31.953Z,37.28
2022-12-25T15:27:00.594Z,39.20
2022-12-25T15:30:07.390Z,39.05
2022-12-25T15:32:21.184Z,40.58
2022-12-25T15:34:49.995Z,36.90
2022-12-25T15:37:18.242Z,45.83
2022-12-25T15:39:46.056Z,36.92
2022-12-25T15:42:18.524Z,36.75
2022-12-25T15:44:46.502Z,41.65
2022-12-25T15:47:15.749Z,45.42
2022-12-25T15:49:43.388Z,44.10
2022-12-25T15:52:16.767Z,47.33
2022-12-25T15:54:44.011Z,36.90
2022-12-25T15:57:20.662Z,38.08
2022-12-25T15:59:47.747Z,41.00
2022-12-25T16:02:17.357Z,39.95
2022-12-25T16:04:44.937Z,38.58
2022-12-25T16:07:16.640Z,35.22
2022-12-25T16:09:44.023Z,42.88
2022-12-25T16:12:11.144Z,36.67
2022-12-25T16:14:38.186Z,38.38
2022-12-25T16:17:05.689Z,40.50
2022-12-25T16:19:32.877Z,39.03
2022-12-25T16:21:59.822Z,42.50
2022-12-25T16:24:26.740Z,42.20
2022-12-25T16:26:53.649Z,39.38
2022-12-25T16:29:20.605Z,41.47
2022-12-25T16:31:47.608Z,40.85
2022-12-25T16:34:14.619Z,47.90
2022-12-25T16:36:41.568Z,39.80
2022-12-25T16:39:08.554Z,42.20
2022-12-25T16:41:35.551Z,42.70
2022-12-25T16:44:09.593Z,43.15
2022-12-25T16:46:37.858Z,43.60
2022-12-25T16:49:04.943Z,44.83
2022-12-25T16:51:32.094Z,41.00
2022-12-25T16:53:59.633Z,44.60
2022-12-25T16:56:28.594Z,45.55
2022-12-25T16:58:57.852Z,42.58
2022-12-25T17:01:26.009Z,44.00
2022-12-25T17:03:53.140Z,47.95
2022-12-25T17:06:24.087Z,47.63
2022-12-25T17:08:52.424Z,49.95
2022-12-25T17:11:23.637Z,54.53
2022-12-25T17:13:50.593Z,49.10
2022-12-25T17:16:22.952Z,51.42
2022-12-25T17:19:04.528Z,49.90
2022-12-25T17:21:35.474Z,45.47
2022-12-25T17:24:04.459Z,56.42
2022-12-25T17:26:32.827Z,48.50
2022-12-25T17:29:00.405Z,50.40
2022-12-25T17:31:27.895Z,49.78
2022-12-25T17:33:54.980Z,48.47
2022-12-25T17:36:22.652Z,48.08
2022-12-25T17:38:49.988Z,57.42
2022-12-25T17:41:18.589Z,56.40
2022-12-25T17:43:46.695Z,57.60
2022-12-25T17:46:16.916Z,54.65
2022-12-25T17:48:44.378Z,54.17
2022-12-25T17:51:14.552Z,62.65
2022-12-25T17:53:43.986Z,56.15
2022-12-25T17:56:26.596Z,46.78
2022-12-25T17:59:04.742Z,46.88
2022-12-25T18:01:43.071Z,46.90
2022-12-25T18:04:13.220Z,47.30
2022-12-25T18:06:40.296Z,42.10
2022-12-25T18:09:07.694Z,43.90
2022-12-25T18:11:37.461Z,48.92
2022-12-25T18:14:05.694Z,44.42
2022-12-25T18:16:37.909Z,46.95
2022-12-25T18:19:05.587Z,45.47
2022-12-25T18:21:32.547Z,51.80
2022-12-25T18:23:59.540Z,51.08
2022-12-25T18:26:28.694Z,52.15
2022-12-25T18:28:56.252Z,58.05
2022-12-25T18:31:25.890Z,52.28
2022-12-25T18:33:53.729Z,47.42
2022-12-25T18:36:23.206Z,46.70
2022-12-25T18:38:52.634Z,43.50
2022-12-25T18:41:21.152Z,43.92
2022-12-25T18:43:54.238Z,47.25
2022-12-25T18:46:24.722Z,39.22
2022-12-25T18:48:52.272Z,40.25
2022-12-25T18:51:19.395Z,42.65
2022-12-25T18:53:47.258Z,45.45
2022-12-25T18:56:17.836Z,47.83
2022-12-25T18:58:46.190Z,50.55
2022-12-25T19:01:17.322Z,50.85
2022-12-25T19:03:44.670Z,86.88
2022-12-25T19:06:23.376Z,76.38
2022-12-25T19:08:50.420Z,57.35
2022-12-25T19:11:18.660Z,43.42
2022-12-25T19:13:46.181Z,43.25
2022-12-25T19:16:13.779Z,45.72
2022-12-25T19:18:40.866Z,49.42
2022-12-25T19:21:09.329Z,47.63
2022-12-25T19:23:38.015Z,43.33
2022-12-25T19:26:06.472Z,44.25
2022-12-25T19:28:33.713Z,48.33
2022-12-25T19:31:01.676Z,46.42
2022-12-25T19:33:34.074Z,56.88
2022-12-25T19:36:02.685Z,49.42
2022-12-25T19:38:29.647Z,71.93
2022-12-25T19:41:02.604Z,74.95
2022-12-25T19:43:34.785Z,70.70
2022-12-25T19:46:02.559Z,68.90
2022-12-25T19:48:31.191Z,55.38
2022-12-25T19:50:58.842Z,57.28
2022-12-25T19:53:29.605Z,49.33
2022-12-25T19:56:02.955Z,70.97
2022-12-25T19:58:30.173Z,72.07
2022-12-25T20:01:02.311Z,57.33
2022-12-25T20:03:29.499Z,47.08
2022-12-25T20:05:56.639Z,40.30
2022-12-25T20:08:25.473Z,41.05
2022-12-25T20:10:52.647Z,41.13
2022-12-25T20:13:20.348Z,50.00
2022-12-25T20:15:48.501Z,41.67
2022-12-25T20:18:16.896Z,42.75
2022-12-25T20:20:45.045Z,37.63
2022-12-25T20:23:12.111Z,34.67
2022-12-25T20:25:40.941Z,38.72
2022-12-25T20:28:08.932Z,40.08
2022-12-25T20:30:40.418Z,44.67
2022-12-25T20:33:08.893Z,40.08
2022-12-25T20:35:36.734Z,38.00
2022-12-25T20:38:03.693Z,59.35
2022-12-25T20:40:32.477Z,54.60
2022-12-25T20:43:09.636Z,47.47
2022-12-25T20:45:42.386Z,41.63
2022-12-25T20:48:09.473Z,39.70
2022-12-25T20:50:36.532Z,41.28
2022-12-25T20:53:03.916Z,35.92
2022-12-25T20:55:30.898Z,33.45
2022-12-25T20:57:57.986Z,37.00
2022-12-25T21:00:25.009Z,44.30
2022-12-25T21:02:54.413Z,35.55
2022-12-25T21:05:23.005Z,40.53
2022-12-25T21:07:50.001Z,41.58
2022-12-25T21:10:17.071Z,36.83
2022-12-25T21:12:44.098Z,44.63
2022-12-25T21:15:15.720Z,40.53
2022-12-25T21:17:43.046Z,39.33
2022-12-25T21:20:10.441Z,34.35
2022-12-25T21:22:37.357Z,35.20
2022-12-25T21:25:04.525Z,35.22
2022-12-25T21:27:31.683Z,29.50
2022-12-25T21:29:58.655Z,36.28
2022-12-25T21:33:00.220Z,42.23
2022-12-25T21:35:27.220Z,30.23
2022-12-25T21:37:54.283Z,32.47
2022-12-25T21:40:21.246Z,38.53
2022-12-25T21:42:48.318Z,32.22
2022-12-25T21:45:17.962Z,32.47
2022-12-25T21:48:01.304Z,31.83
2022-12-25T21:50:49.045Z,33.97
2022-12-25T21:53:17.993Z,30.60
2022-12-25T21:55:59.403Z,30.17
2022-12-25T21:58:27.130Z,28.73
2022-12-25T22:00:54.297Z,28.75
2022-12-25T22:03:21.700Z,33.72
2022-12-25T22:06:07.441Z,31.23
2022-12-25T22:08:34.561Z,35.05
2022-12-25T22:11:04.612Z,40.35
2022-12-25T22:13:50.210Z,38.90
2022-12-25T22:16:35.608Z,34.17
2022-12-25T22:19:21.034Z,34.47
2022-12-25T22:21:47.997Z,36.95
2022-12-25T22:24:14.954Z,46.53
2022-12-25T22:26:44.869Z,43.63
2022-12-25T22:29:12.059Z,50.72
2022-12-25T22:31:46.185Z,58.72
2022-12-25T22:34:16.493Z,45.75
2022-12-25T22:36:43.797Z,56.67
2022-12-25T22:39:11.523Z,51.33
2022-12-25T22:41:38.468Z,46.97
2022-12-25T22:44:17.039Z,42.90
2022-12-25T22:46:45.303Z,35.72
2022-12-25T22:49:12.327Z,59.58
2022-12-25T22:51:39.597Z,59.97
2022-12-25T22:54:06.507Z,48.80
2022-12-25T22:56:33.905Z,40.10
2022-12-25T22:59:01.032Z,48.92
2022-12-25T23:01:28.147Z,44.65
2022-12-25T23:03:55.354Z,42.45
2022-12-25T23:06:22.430Z,42.13
2022-12-25T23:08:49.916Z,39.25
2022-12-25T23:11:17.497Z,36.35
2022-12-25T23:14:03.198Z,41.70
2022-12-25T23:16:30.319Z,41.20
2022-12-25T23:19:16.104Z,35.58
2022-12-25T23:22:02.442Z,32.03
2022-12-25T23:24:47.885Z,29.98
2022-12-25T23:27:15.017Z,36.03
2022-12-25T23:29:42.805Z,38.90
2022-12-25T23:32:18.143Z,54.38
2022-12-25T23:34:45.799Z,38.72
2022-12-25T23:37:13.200Z,33.67
2022-12-25T23:39:40.529Z,37.05
2022-12-25T23:42:07.838Z,32.28
2022-12-25T23:44:34.893Z,30.75
2022-12-25T23:47:02.672Z,30.52
2022-12-25T23:49:30.490Z,31.88
2022-12-25T23:51:57.509Z,30.83
2022-12-25T23:54:29.768Z,32.70
2022-12-25T23:56:59.247Z,33.08
2022-12-25T23:59:28.083Z,27.48
